METAR (acronimo di METeorological Air Report) è un messaggio meteo emesso nella maggior parte dei casi in ambito aeroportuale

CYYZ - Toronto-Pearson, Ontario, Canada
Ultimo Aggiornamento: Venerdì 18 Ottobre 2019 15:00 CEST
Prevalentemente Nuvoloso
Prevalentemente Nuvoloso
 Wind from Nord
Vento: Nord 26 km/h, Raffica: 35 km/h
Temperatura: 7°C
Wind Chill: 3°C
Punto di Rugiada: 1°C
Umidità: 66%
Barometro: 1015.6 hPa
Nuvole: Prevalentemente Nuvoloso
Visibilità: 24 km
Nuvole nel Dettaglio: Prevalentemente Nuvoloso 884 m
2019/10/18 13:00 CYYZ 181300Z 35014G19KT 15SM BKN029 07/01 A2999 RMK SC7 SLP162
CYHZ - Halifax, Nova Scotia, Canada
Ultimo Aggiornamento: Venerdì 18 Ottobre 2019 15:00 CEST
Prevalentemente Nuvoloso
Prevalentemente Nuvoloso
 Wind from Sud-Ovest
Vento: Sud-Ovest 26 km/h, Raffica: 44 km/h
Temperatura: 11°C
Punto di Rugiada: 9°C
Umidità: 88%
Barometro: 995.3 hPa
Nuvole: Prevalentemente Nuvoloso
Visibilità: 24 km
Nuvole nel Dettaglio: Prevalentemente Nuvoloso 518 m
2019/10/18 13:00 CYHZ 181300Z 23014G24KT 15SM BKN017 11/09 A2939 RMK SC7 SLP956 DENSITY ALT 700FT
CYOW - Ottawa, Ontario, Canada
Ultimo Aggiornamento: Venerdì 18 Ottobre 2019 15:00 CEST
Nuvoloso
Nuvoloso
 Wind from Ovest-Nord-Ovest
Vento: Ovest-Nord-Ovest 26 km/h, Raffica: 41 km/h
Temperatura: 6°C
Wind Chill: 2°C
Punto di Rugiada: 2°C
Umidità: 76%
Barometro: 1009.8 hPa
Nuvole: Nuvoloso
Visibilità: 24 km
Nuvole nel Dettaglio: Nuvoloso 701 m
2019/10/18 13:00 CYOW 181300Z 30014G22KT 15SM OVC023 06/02 A2982 RMK SC8 SLP103
 
PANC - Anchorage, Alaska, United States
Ultimo Aggiornamento: Venerdì 18 Ottobre 2019 15:53 CEST
Prevalentemente Nuvoloso
Prevalentemente Nuvoloso
 Wind from Nord-Est
Vento: Nord-Est 11 km/h
Temperatura: 3°C
Wind Chill: 0°C
Punto di Rugiada: 1°C
Umidità: 87%
Barometro: 984.8 hPa
Nuvole: Prevalentemente Nuvoloso
Visibilità: 16 km
Nuvole nel Dettaglio: Prevalentemente Nuvoloso 1829 m
Prevalentemente Nuvoloso 2286 m
2019/10/18 13:53 PANC 181353Z 05006KT 10SM BKN060 BKN075 03/01 A2908 RMK AO2 RAB42E49 SLP847 P0000 T00280006 $
KIAD - Washington-Dulles, Virginia, United States
Ultimo Aggiornamento: Venerdì 18 Ottobre 2019 15:52 CEST
Qualche Nuvola
Qualche Nuvola
 Wind from Nord-Ovest
Vento: Nord-Ovest 30 km/h
Temperatura: 12°C
Punto di Rugiada: 2°C
Umidità: 51%
Barometro: 1015.2 hPa
Nuvole: Qualche Nuvola
Visibilità: 16 km
Nuvole nel Dettaglio: Qualche Nuvola 1524 m
2019/10/18 13:52 KIAD 181352Z 31016KT 10SM FEW050 12/02 A2998 RMK AO2 SLP153 T01170017
KJFK - New York-JFK, New York, United States
Ultimo Aggiornamento: Venerdì 18 Ottobre 2019 15:51 CEST
Prevalentemente Nuvoloso
Prevalentemente Nuvoloso
 Wind from Nord-Ovest
Vento: Nord-Ovest 30 km/h
Temperatura: 12°C
Punto di Rugiada: 5°C
Umidità: 63%
Barometro: 1010.2 hPa
Nuvole: Prevalentemente Nuvoloso
Visibilità: 16 km
Nuvole nel Dettaglio: Prevalentemente Nuvoloso 1006 m
Prevalentemente Nuvoloso 3658 m
2019/10/18 13:51 KJFK 181351Z 32016KT 10SM BKN033 BKN120 12/05 A2983 RMK AO2 PK WND 31027/1338 SLP100 T01170050
 
KORD - Chicago, Illinois, United States
Ultimo Aggiornamento: Venerdì 18 Ottobre 2019 15:51 CEST
Prevalentemente Nuvoloso
Prevalentemente Nuvoloso
 Wind from Sud-Sud-Est
Vento: Sud-Sud-Est 15 km/h
Temperatura: 7°C
Wind Chill: 4°C
Punto di Rugiada: 4°C
Umidità: 81%
Barometro: 1018.6 hPa
Nuvole: Prevalentemente Nuvoloso
Visibilità: 16 km
Nuvole nel Dettaglio: Prevalentemente Nuvoloso 7620 m
2019/10/18 13:51 KORD 181351Z 15008KT 10SM BKN250 07/04 A3008 RMK AO2 SLP189 T00670039
KDEN - Denver, Colorado, United States
Ultimo Aggiornamento: Venerdì 18 Ottobre 2019 15:53 CEST
Parzialmente Nuvoloso
Parzialmente Nuvoloso
 Wind from Sud-Sud-Ovest
Vento: Sud-Sud-Ovest 20 km/h
Temperatura: 14°C
Punto di Rugiada: -4°C
Umidità: 29%
Barometro: 1002.4 hPa
Nuvole: Parzialmente Nuvoloso
Visibilità: 16 km
Nuvole nel Dettaglio: Qualche Nuvola 2438 m
Parzialmente Nuvoloso 3658 m
Parzialmente Nuvoloso 6706 m
2019/10/18 13:53 KDEN 181353Z 20011KT 10SM FEW080 SCT120 SCT220 14/M04 A2960 RMK AO2 SLP968 T01391044
KSLC - Salt Lake City, Utah, United States
Ultimo Aggiornamento: Venerdì 18 Ottobre 2019 15:54 CEST
Parzialmente Nuvoloso
Parzialmente Nuvoloso
 Wind from Sud-Sud-Est
Vento: Sud-Sud-Est 9 km/h
Temperatura: 5°C
Wind Chill: 3°C
Punto di Rugiada: 3°C
Umidità: 87%
Barometro: 1014.9 hPa
Nuvole: Parzialmente Nuvoloso
Visibilità: 16 km
Nuvole nel Dettaglio: Qualche Nuvola 1006 m
Parzialmente Nuvoloso 1524 m
2019/10/18 13:54 KSLC 181354Z 15005KT 10SM FEW033 SCT050 05/03 A2997 RMK AO2 SLP131 TCU DSNT NE AND SE T00500033
 
KBOS - Boston, Massachusetts, United States
Ultimo Aggiornamento: Venerdì 18 Ottobre 2019 15:54 CEST
Prevalentemente Nuvoloso
Prevalentemente Nuvoloso
 Wind from Ovest
Vento: Ovest 19 km/h
Temperatura: 13°C
Punto di Rugiada: 4°C
Umidità: 55%
Barometro: 1005.1 hPa
Nuvole: Prevalentemente Nuvoloso
Visibilità: 16 km
Nuvole nel Dettaglio: Prevalentemente Nuvoloso 1311 m
2019/10/18 13:54 KBOS 181354Z 28010KT 10SM BKN043 13/04 A2968 RMK AO2 SLP050 T01280044
KLAX - Los Angeles, California, United States
Ultimo Aggiornamento: Venerdì 18 Ottobre 2019 15:53 CEST
Qualche Nuvola
Qualche Nuvola
 Wind from Est
Vento: Est 9 km/h
Temperatura: 16°C
Punto di Rugiada: 13°C
Umidità: 83%
Barometro: 1012.2 hPa
Nuvole: Qualche Nuvola
Visibilità: 16 km
Nuvole nel Dettaglio: Qualche Nuvola 335 m
2019/10/18 13:53 KLAX 181353Z 09005KT 10SM FEW011 16/13 A2989 RMK AO2 SLP121 T01560128
KLAS - Las Vegas, Nevada, United States
Ultimo Aggiornamento: Venerdì 18 Ottobre 2019 15:56 CEST
Qualche Nuvola
Qualche Nuvola
 Wind from Nord
Vento: Nord 33 km/h, Raffica: 46 km/h
Temperatura: 18°C
Punto di Rugiada: -9°C
Umidità: 15%
Barometro: 1011.9 hPa
Nuvole: Qualche Nuvola
Visibilità: 16 km
Nuvole nel Dettaglio: Qualche Nuvola 5486 m
2019/10/18 13:56 KLAS 181356Z 36018G25KT 10SM FEW180 18/M09 A2988 RMK AO2 PK WND 35030/1258 SLP101 T01831094 $
 
KSFO - San Francisco, California, United States
Ultimo Aggiornamento: Venerdì 18 Ottobre 2019 15:56 CEST
Qualche Nuvola
Qualche Nuvola
 Wind from Ovest
Vento: Ovest 19 km/h
Temperatura: 13°C
Punto di Rugiada: 8°C
Umidità: 72%
Barometro: 1017.9 hPa
Nuvole: Qualche Nuvola
Visibilità: 16 km
Nuvole nel Dettaglio: Qualche Nuvola 6096 m
2019/10/18 13:56 KSFO 181356Z 27010KT 10SM FEW200 13/08 A3006 RMK AO2 SLP180 T01330083
KATL - Atlanta, Georgia, United States
Ultimo Aggiornamento: Venerdì 18 Ottobre 2019 15:52 CEST
Prevalentemente Nuvoloso
Prevalentemente Nuvoloso
 Wind from Est
Vento: Est 24 km/h
Temperatura: 12°C
Punto di Rugiada: 4°C
Umidità: 58%
Barometro: 1017.6 hPa
Nuvole: Prevalentemente Nuvoloso
Visibilità: 16 km
Nuvole nel Dettaglio: Prevalentemente Nuvoloso 7620 m
2019/10/18 13:52 KATL 181352Z 08013KT 10SM BKN250 12/04 A3005 RMK AO2 SLP176 T01170039
KDFW - Dallas / Fort Worth, Texas, United States
Ultimo Aggiornamento: Venerdì 18 Ottobre 2019 15:53 CEST
Sereno
Sereno
 Wind from Sud-Est
Vento: Sud-Est 9 km/h
Temperatura: 12°C
Punto di Rugiada: 9°C
Umidità: 82%
Barometro: 1012.5 hPa
Nuvole: Sereno
Visibilità: 16 km
2019/10/18 13:53 KDFW 181353Z 14005KT 10SM CLR 12/09 A2990 RMK AO2 SLP120 T01220094
 
KMCI - Kansas City, Missouri, United States
Ultimo Aggiornamento: Venerdì 18 Ottobre 2019 15:53 CEST
Prevalentemente Nuvoloso
Prevalentemente Nuvoloso
 Wind from Sud
Vento: Sud 24 km/h
Temperatura: 12°C
Punto di Rugiada: 8°C
Umidità: 77%
Barometro: 1010.5 hPa
Nuvole: Prevalentemente Nuvoloso
Visibilità: 16 km
Nuvole nel Dettaglio: Prevalentemente Nuvoloso 6096 m
2019/10/18 13:53 KMCI 181353Z 17013KT 10SM BKN200 12/08 A2984 RMK AO2 SLP102 T01170083
KIAH - Houston, Texas, United States
Ultimo Aggiornamento: Venerdì 18 Ottobre 2019 15:53 CEST
Qualche Nuvola
Qualche Nuvola
 Wind from Nord-Est
Vento: Nord-Est 6 km/h
Temperatura: 14°C
Punto di Rugiada: 11°C
Umidità: 82%
Barometro: 1012.5 hPa
Nuvole: Qualche Nuvola
Visibilità: 16 km
Nuvole nel Dettaglio: Qualche Nuvola 4572 m
2019/10/18 13:53 KIAH 181353Z 04003KT 10SM FEW150 14/11 A2990 RMK AO2 SLP123 T01390111
KMIA - Miami, Florida, United States
Ultimo Aggiornamento: Venerdì 18 Ottobre 2019 15:53 CEST
Parzialmente Nuvoloso
Parzialmente Nuvoloso
 Wind from calm
Vento: Calma
Temperatura: 29°C
Heat Index: 32°C
Punto di Rugiada: 23°C
Umidità: 70%
Barometro: 1014.2 hPa
Nuvole: Parzialmente Nuvoloso
Visibilità: 16 km
Nuvole nel Dettaglio: Qualche Nuvola 762 m
Parzialmente Nuvoloso 7620 m
2019/10/18 13:53 KMIA 181353Z 00000KT 10SM FEW025 SCT250 29/23 A2995 RMK AO2 SLP140 T02940228
 
KMSY - New Orleans, Louisiana, United States
Ultimo Aggiornamento: Venerdì 18 Ottobre 2019 15:53 CEST
Nuvoloso
Nuvoloso
 Wind from Est-Nord-Est
Vento: Est-Nord-Est 19 km/h
Temperatura: 19°C
Punto di Rugiada: 14°C
Umidità: 73%
Barometro: 1011.9 hPa
Nuvole: Nuvoloso
Visibilità: 16 km
Nuvole nel Dettaglio: Qualche Nuvola 914 m
Qualche Nuvola 1676 m
Prevalentemente Nuvoloso 2591 m
Nuvoloso 3962 m
2019/10/18 13:53 KMSY 181353Z 06010KT 10SM FEW030 FEW055 BKN085 OVC130 19/14 A2988 RMK AO2 RAB33E52 SLP121 P0000 T01940139
MMMX - Mexico City, Mexico
Ultimo Aggiornamento: Venerdì 18 Ottobre 2019 15:45 CEST
Prevalentemente Nuvoloso
Prevalentemente Nuvoloso
 Wind from Sud-Sud-Ovest
Vento: Sud-Sud-Ovest 6 km/h
Temperatura: 17°C
Punto di Rugiada: 12°C
Umidità: 73%
Barometro: 1025.1 hPa
Nuvole: Prevalentemente Nuvoloso
Visibilità: 16 km
Nuvole nel Dettaglio: Prevalentemente Nuvoloso 7010 m
2019/10/18 13:45 MMMX 181345Z 21003KT 10SM BKN230 17/12 A3027 NOSIG RMK 8/001 ISOL SC
MUHA - Havana, Cuba
Ultimo Aggiornamento: Venerdì 18 Ottobre 2019 14:55 CEST
Qualche Nuvola
Qualche Nuvola
 Wind from Est
Vento: Est 7 km/h
Temperatura: 26°C
Punto di Rugiada: 26°C
Umidità: 100%
Barometro: 1013 hPa
Nuvole: Qualche Nuvola
Visibilità: 9 km
Nuvole nel Dettaglio: Qualche Nuvola 762 m
2019/10/18 12:55 MUHA 181255Z 10004KT 9000 FEW025TCU 26/26 Q1013